sensor_id;sensor_type;location;lat;lon;timestamp;P1;durP1;ratioP1;P2;durP2;ratioP2
49223;SDS011;35050;51.316;5.994;2024-01-07T00:01:58;22.23;;;16.70;;
49223;SDS011;35050;51.316;5.994;2024-01-07T00:04:24;23.92;;;19.35;;
49223;SDS011;35050;51.316;5.994;2024-01-07T00:06:50;24.23;;;18.85;;
49223;SDS011;35050;51.316;5.994;2024-01-07T00:09:16;24.17;;;18.85;;
49223;SDS011;35050;51.316;5.994;2024-01-07T00:11:41;22.45;;;17.77;;
49223;SDS011;35050;51.316;5.994;2024-01-07T00:14:07;20.52;;;17.27;;
49223;SDS011;35050;51.316;5.994;2024-01-07T00:16:33;22.05;;;17.83;;
49223;SDS011;35050;51.316;5.994;2024-01-07T00:18:59;20.55;;;16.27;;
49223;SDS011;35050;51.316;5.994;2024-01-07T00:21:25;24.48;;;18.33;;
49223;SDS011;35050;51.316;5.994;2024-01-07T00:23:50;24.65;;;19.30;;
49223;SDS011;35050;51.316;5.994;2024-01-07T00:26:16;21.63;;;16.83;;
49223;SDS011;35050;51.316;5.994;2024-01-07T00:28:42;22.75;;;17.33;;
49223;SDS011;35050;51.316;5.994;2024-01-07T00:31:07;22.23;;;18.10;;
49223;SDS011;35050;51.316;5.994;2024-01-07T00:33:34;25.13;;;18.92;;
49223;SDS011;35050;51.316;5.994;2024-01-07T00:36:00;24.27;;;18.67;;
49223;SDS011;35050;51.316;5.994;2024-01-07T00:38:27;23.95;;;18.30;;
49223;SDS011;35050;51.316;5.994;2024-01-07T00:40:52;26.75;;;19.17;;
49223;SDS011;35050;51.316;5.994;2024-01-07T00:43:18;26.00;;;19.35;;
49223;SDS011;35050;51.316;5.994;2024-01-07T00:45:44;23.42;;;17.75;;
49223;SDS011;35050;51.316;5.994;2024-01-07T00:48:09;23.52;;;18.15;;
49223;SDS011;35050;51.316;5.994;2024-01-07T00:50:35;27.30;;;19.15;;
49223;SDS011;35050;51.316;5.994;2024-01-07T00:53:01;28.50;;;20.27;;
49223;SDS011;35050;51.316;5.994;2024-01-07T00:55:27;27.70;;;20.58;;
49223;SDS011;35050;51.316;5.994;2024-01-07T00:57:52;28.55;;;20.77;;
49223;SDS011;35050;51.316;5.994;2024-01-07T01:00:18;27.02;;;20.20;;
49223;SDS011;35050;51.316;5.994;2024-01-07T01:02:44;30.13;;;21.45;;
49223;SDS011;35050;51.316;5.994;2024-01-07T01:05:10;27.55;;;19.80;;
49223;SDS011;35050;51.316;5.994;2024-01-07T01:07:36;25.38;;;18.13;;
49223;SDS011;35050;51.316;5.994;2024-01-07T01:10:02;28.10;;;18.83;;
49223;SDS011;35050;51.316;5.994;2024-01-07T01:12:27;28.17;;;19.02;;
49223;SDS011;35050;51.316;5.994;2024-01-07T01:14:53;27.83;;;19.30;;
49223;SDS011;35050;51.316;5.994;2024-01-07T01:17:20;28.48;;;19.27;;
49223;SDS011;35050;51.316;5.994;2024-01-07T01:19:45;29.30;;;18.67;;
49223;SDS011;35050;51.316;5.994;2024-01-07T01:22:11;26.58;;;19.67;;
49223;SDS011;35050;51.316;5.994;2024-01-07T01:24:37;27.38;;;19.55;;
49223;SDS011;35050;51.316;5.994;2024-01-07T01:27:02;28.33;;;19.42;;
49223;SDS011;35050;51.316;5.994;2024-01-07T01:29:28;25.90;;;18.88;;
49223;SDS011;35050;51.316;5.994;2024-01-07T01:31:53;23.65;;;17.10;;
49223;SDS011;35050;51.316;5.994;2024-01-07T01:34:19;23.98;;;16.83;;
49223;SDS011;35050;51.316;5.994;2024-01-07T01:36:45;24.70;;;17.23;;
49223;SDS011;35050;51.316;5.994;2024-01-07T01:39:10;24.27;;;17.63;;
49223;SDS011;35050;51.316;5.994;2024-01-07T01:41:36;22.60;;;16.30;;
49223;SDS011;35050;51.316;5.994;2024-01-07T01:44:02;23.90;;;16.33;;
49223;SDS011;35050;51.316;5.994;2024-01-07T01:46:28;23.40;;;17.23;;
49223;SDS011;35050;51.316;5.994;2024-01-07T01:48:55;23.90;;;17.40;;
49223;SDS011;35050;51.316;5.994;2024-01-07T01:51:21;22.20;;;16.05;;
49223;SDS011;35050;51.316;5.994;2024-01-07T01:53:47;24.52;;;16.63;;
49223;SDS011;35050;51.316;5.994;2024-01-07T01:56:14;25.10;;;16.80;;
49223;SDS011;35050;51.316;5.994;2024-01-07T01:58:45;24.83;;;16.38;;
49223;SDS011;35050;51.316;5.994;2024-01-07T02:01:12;33.67;;;20.48;;
49223;SDS011;35050;51.316;5.994;2024-01-07T02:03:37;30.25;;;20.17;;
49223;SDS011;35050;51.316;5.994;2024-01-07T02:06:03;29.92;;;19.60;;
49223;SDS011;35050;51.316;5.994;2024-01-07T02:08:29;34.30;;;21.52;;
49223;SDS011;35050;51.316;5.994;2024-01-07T02:10:55;34.38;;;22.05;;
49223;SDS011;35050;51.316;5.994;2024-01-07T02:13:20;30.42;;;19.48;;
49223;SDS011;35050;51.316;5.994;2024-01-07T02:15:46;31.42;;;19.85;;
49223;SDS011;35050;51.316;5.994;2024-01-07T02:18:12;30.95;;;19.92;;
49223;SDS011;35050;51.316;5.994;2024-01-07T02:20:37;31.80;;;19.08;;
49223;SDS011;35050;51.316;5.994;2024-01-07T02:23:03;28.05;;;18.27;;
49223;SDS011;35050;51.316;5.994;2024-01-07T02:25:29;27.77;;;18.08;;
49223;SDS011;35050;51.316;5.994;2024-01-07T02:27:59;26.02;;;17.67;;
49223;SDS011;35050;51.316;5.994;2024-01-07T02:30:25;26.23;;;16.85;;
49223;SDS011;35050;51.316;5.994;2024-01-07T02:32:52;26.30;;;17.08;;
49223;SDS011;35050;51.316;5.994;2024-01-07T02:35:17;30.80;;;20.17;;
49223;SDS011;35050;51.316;5.994;2024-01-07T02:37:43;27.70;;;18.70;;
49223;SDS011;35050;51.316;5.994;2024-01-07T02:40:09;29.35;;;20.15;;
49223;SDS011;35050;51.316;5.994;2024-01-07T02:42:35;29.75;;;19.27;;
49223;SDS011;35050;51.316;5.994;2024-01-07T02:45:00;26.73;;;18.85;;
49223;SDS011;35050;51.316;5.994;2024-01-07T02:47:26;28.20;;;17.80;;
49223;SDS011;35050;51.316;5.994;2024-01-07T02:49:52;27.48;;;18.52;;
49223;SDS011;35050;51.316;5.994;2024-01-07T02:52:17;24.48;;;17.33;;
49223;SDS011;35050;51.316;5.994;2024-01-07T02:54:43;24.88;;;16.30;;
49223;SDS011;35050;51.316;5.994;2024-01-07T02:57:09;24.35;;;16.38;;
49223;SDS011;35050;51.316;5.994;2024-01-07T02:59:34;24.25;;;16.73;;
49223;SDS011;35050;51.316;5.994;2024-01-07T03:02:00;23.90;;;16.10;;
49223;SDS011;35050;51.316;5.994;2024-01-07T03:04:25;22.95;;;15.95;;
49223;SDS011;35050;51.316;5.994;2024-01-07T03:06:51;20.25;;;14.63;;
49223;SDS011;35050;51.316;5.994;2024-01-07T03:09:17;22.67;;;15.45;;
49223;SDS011;35050;51.316;5.994;2024-01-07T03:11:42;22.58;;;15.13;;
49223;SDS011;35050;51.316;5.994;2024-01-07T03:14:09;19.67;;;14.38;;
49223;SDS011;35050;51.316;5.994;2024-01-07T03:16:35;21.85;;;15.50;;
49223;SDS011;35050;51.316;5.994;2024-01-07T03:19:00;19.30;;;13.73;;
49223;SDS011;35050;51.316;5.994;2024-01-07T03:21:27;19.70;;;14.60;;
49223;SDS011;35050;51.316;5.994;2024-01-07T03:23:52;20.50;;;14.20;;
49223;SDS011;35050;51.316;5.994;2024-01-07T03:26:19;20.48;;;14.57;;
49223;SDS011;35050;51.316;5.994;2024-01-07T03:28:45;19.02;;;13.75;;
49223;SDS011;35050;51.316;5.994;2024-01-07T03:31:12;18.40;;;13.70;;
49223;SDS011;35050;51.316;5.994;2024-01-07T03:33:40;19.60;;;14.30;;
49223;SDS011;35050;51.316;5.994;2024-01-07T03:36:09;18.27;;;13.43;;
49223;SDS011;35050;51.316;5.994;2024-01-07T03:38:37;18.80;;;14.40;;
49223;SDS011;35050;51.316;5.994;2024-01-07T03:41:04;23.05;;;15.68;;
49223;SDS011;35050;51.316;5.994;2024-01-07T03:43:29;20.05;;;14.70;;
49223;SDS011;35050;51.316;5.994;2024-01-07T03:45:56;19.15;;;14.80;;
49223;SDS011;35050;51.316;5.994;2024-01-07T03:48:21;20.00;;;15.13;;
49223;SDS011;35050;51.316;5.994;2024-01-07T03:50:47;20.23;;;14.98;;
49223;SDS011;35050;51.316;5.994;2024-01-07T03:53:13;21.05;;;14.20;;
49223;SDS011;35050;51.316;5.994;2024-01-07T03:55:38;18.23;;;13.63;;
49223;SDS011;35050;51.316;5.994;2024-01-07T03:58:04;19.75;;;14.38;;
49223;SDS011;35050;51.316;5.994;2024-01-07T04:00:30;17.80;;;13.52;;
49223;SDS011;35050;51.316;5.994;2024-01-07T04:02:56;19.88;;;14.68;;
49223;SDS011;35050;51.316;5.994;2024-01-07T04:05:22;20.15;;;14.48;;
49223;SDS011;35050;51.316;5.994;2024-01-07T04:07:48;21.30;;;14.95;;
49223;SDS011;35050;51.316;5.994;2024-01-07T04:10:15;21.05;;;14.13;;
49223;SDS011;35050;51.316;5.994;2024-01-07T04:12:41;21.98;;;14.85;;
49223;SDS011;35050;51.316;5.994;2024-01-07T04:15:07;20.85;;;15.57;;
49223;SDS011;35050;51.316;5.994;2024-01-07T04:17:33;22.25;;;15.10;;
49223;SDS011;35050;51.316;5.994;2024-01-07T04:19:58;20.05;;;14.63;;
49223;SDS011;35050;51.316;5.994;2024-01-07T04:22:24;20.00;;;14.15;;
49223;SDS011;35050;51.316;5.994;2024-01-07T04:24:50;20.17;;;14.38;;
49223;SDS011;35050;51.316;5.994;2024-01-07T04:27:15;20.52;;;14.65;;
49223;SDS011;35050;51.316;5.994;2024-01-07T04:29:41;20.45;;;14.93;;
49223;SDS011;35050;51.316;5.994;2024-01-07T04:32:06;18.95;;;13.90;;
49223;SDS011;35050;51.316;5.994;2024-01-07T04:34:32;20.13;;;13.85;;
49223;SDS011;35050;51.316;5.994;2024-01-07T04:36:58;21.15;;;15.13;;
49223;SDS011;35050;51.316;5.994;2024-01-07T04:39:23;20.88;;;14.43;;
49223;SDS011;35050;51.316;5.994;2024-01-07T04:41:49;22.25;;;15.18;;
49223;SDS011;35050;51.316;5.994;2024-01-07T04:44:14;24.45;;;15.70;;
49223;SDS011;35050;51.316;5.994;2024-01-07T04:46:40;20.35;;;14.60;;
49223;SDS011;35050;51.316;5.994;2024-01-07T04:49:06;24.33;;;16.20;;
49223;SDS011;35050;51.316;5.994;2024-01-07T04:51:32;21.02;;;14.57;;
49223;SDS011;35050;51.316;5.994;2024-01-07T04:53:58;21.52;;;15.25;;
49223;SDS011;35050;51.316;5.994;2024-01-07T04:56:24;21.27;;;15.13;;
49223;SDS011;35050;51.316;5.994;2024-01-07T04:58:49;23.25;;;14.13;;
49223;SDS011;35050;51.316;5.994;2024-01-07T05:01:15;20.23;;;13.63;;
49223;SDS011;35050;51.316;5.994;2024-01-07T05:03:41;20.15;;;13.68;;
49223;SDS011;35050;51.316;5.994;2024-01-07T05:06:09;20.95;;;14.32;;
49223;SDS011;35050;51.316;5.994;2024-01-07T05:08:36;21.52;;;14.48;;
49223;SDS011;35050;51.316;5.994;2024-01-07T05:11:02;18.15;;;13.10;;
49223;SDS011;35050;51.316;5.994;2024-01-07T05:13:29;18.13;;;12.80;;
49223;SDS011;35050;51.316;5.994;2024-01-07T05:15:56;18.48;;;13.30;;
49223;SDS011;35050;51.316;5.994;2024-01-07T05:18:22;19.70;;;14.65;;
49223;SDS011;35050;51.316;5.994;2024-01-07T05:20:48;22.48;;;14.80;;
49223;SDS011;35050;51.316;5.994;2024-01-07T05:23:14;22.17;;;15.05;;
49223;SDS011;35050;51.316;5.994;2024-01-07T05:25:41;21.50;;;15.43;;
49223;SDS011;35050;51.316;5.994;2024-01-07T05:28:08;21.15;;;14.00;;
49223;SDS011;35050;51.316;5.994;2024-01-07T05:30:34;18.70;;;13.27;;
49223;SDS011;35050;51.316;5.994;2024-01-07T05:32:59;20.67;;;14.38;;
49223;SDS011;35050;51.316;5.994;2024-01-07T05:35:25;18.33;;;13.80;;
49223;SDS011;35050;51.316;5.994;2024-01-07T05:37:50;18.67;;;13.02;;
49223;SDS011;35050;51.316;5.994;2024-01-07T05:40:16;16.88;;;12.85;;
49223;SDS011;35050;51.316;5.994;2024-01-07T05:42:41;19.00;;;12.88;;
49223;SDS011;35050;51.316;5.994;2024-01-07T05:45:07;18.92;;;13.40;;
49223;SDS011;35050;51.316;5.994;2024-01-07T05:47:33;18.23;;;13.63;;
49223;SDS011;35050;51.316;5.994;2024-01-07T05:49:59;18.55;;;13.45;;
49223;SDS011;35050;51.316;5.994;2024-01-07T05:52:24;16.50;;;12.30;;
49223;SDS011;35050;51.316;5.994;2024-01-07T05:54:50;17.13;;;14.00;;
49223;SDS011;35050;51.316;5.994;2024-01-07T05:57:16;18.38;;;13.52;;
49223;SDS011;35050;51.316;5.994;2024-01-07T05:59:43;19.08;;;13.35;;
49223;SDS011;35050;51.316;5.994;2024-01-07T06:02:09;17.50;;;13.55;;
49223;SDS011;35050;51.316;5.994;2024-01-07T06:04:34;18.17;;;13.45;;
49223;SDS011;35050;51.316;5.994;2024-01-07T06:07:02;17.30;;;12.90;;
49223;SDS011;35050;51.316;5.994;2024-01-07T06:09:28;18.95;;;13.93;;
49223;SDS011;35050;51.316;5.994;2024-01-07T06:11:54;18.77;;;13.57;;
49223;SDS011;35050;51.316;5.994;2024-01-07T06:14:20;16.63;;;12.48;;
49223;SDS011;35050;51.316;5.994;2024-01-07T06:16:46;15.15;;;11.30;;
49223;SDS011;35050;51.316;5.994;2024-01-07T06:19:12;16.05;;;11.15;;
49223;SDS011;35050;51.316;5.994;2024-01-07T06:21:39;14.60;;;11.10;;
49223;SDS011;35050;51.316;5.994;2024-01-07T06:24:07;14.07;;;10.98;;
49223;SDS011;35050;51.316;5.994;2024-01-07T06:26:33;16.50;;;10.98;;
49223;SDS011;35050;51.316;5.994;2024-01-07T06:28:58;14.02;;;10.20;;
49223;SDS011;35050;51.316;5.994;2024-01-07T06:31:24;14.73;;;10.95;;
49223;SDS011;35050;51.316;5.994;2024-01-07T06:33:50;18.90;;;11.63;;
49223;SDS011;35050;51.316;5.994;2024-01-07T06:36:16;15.13;;;11.40;;
49223;SDS011;35050;51.316;5.994;2024-01-07T06:38:41;14.85;;;11.25;;
49223;SDS011;35050;51.316;5.994;2024-01-07T06:41:07;15.07;;;11.70;;
49223;SDS011;35050;51.316;5.994;2024-01-07T06:43:34;14.07;;;11.38;;
49223;SDS011;35050;51.316;5.994;2024-01-07T06:46:00;15.20;;;12.20;;
49223;SDS011;35050;51.316;5.994;2024-01-07T06:48:25;16.10;;;11.95;;
49223;SDS011;35050;51.316;5.994;2024-01-07T06:50:51;17.88;;;11.57;;
49223;SDS011;35050;51.316;5.994;2024-01-07T06:53:17;15.25;;;11.40;;
49223;SDS011;35050;51.316;5.994;2024-01-07T06:55:42;13.88;;;10.75;;
49223;SDS011;35050;51.316;5.994;2024-01-07T06:58:08;11.88;;;8.95;;
49223;SDS011;35050;51.316;5.994;2024-01-07T07:00:33;13.63;;;10.30;;
49223;SDS011;35050;51.316;5.994;2024-01-07T07:02:59;12.38;;;8.93;;
49223;SDS011;35050;51.316;5.994;2024-01-07T07:05:25;13.93;;;9.95;;
49223;SDS011;35050;51.316;5.994;2024-01-07T07:07:50;12.13;;;9.10;;
49223;SDS011;35050;51.316;5.994;2024-01-07T07:10:16;12.70;;;9.63;;
49223;SDS011;35050;51.316;5.994;2024-01-07T07:12:41;12.35;;;9.77;;
49223;SDS011;35050;51.316;5.994;2024-01-07T07:15:07;14.82;;;10.40;;
49223;SDS011;35050;51.316;5.994;2024-01-07T07:17:35;13.02;;;10.13;;
49223;SDS011;35050;51.316;5.994;2024-01-07T07:20:04;12.95;;;10.05;;
49223;SDS011;35050;51.316;5.994;2024-01-07T07:22:31;13.90;;;10.70;;
49223;SDS011;35050;51.316;5.994;2024-01-07T07:24:56;16.33;;;11.57;;
49223;SDS011;35050;51.316;5.994;2024-01-07T07:27:22;17.00;;;12.85;;
49223;SDS011;35050;51.316;5.994;2024-01-07T07:29:48;15.02;;;11.38;;
49223;SDS011;35050;51.316;5.994;2024-01-07T07:32:14;15.90;;;11.93;;
49223;SDS011;35050;51.316;5.994;2024-01-07T07:34:40;14.30;;;11.68;;
49223;SDS011;35050;51.316;5.994;2024-01-07T07:37:05;17.40;;;13.50;;
49223;SDS011;35050;51.316;5.994;2024-01-07T07:39:31;18.58;;;13.35;;
49223;SDS011;35050;51.316;5.994;2024-01-07T07:41:56;17.00;;;12.75;;
49223;SDS011;35050;51.316;5.994;2024-01-07T07:44:22;17.58;;;12.20;;
49223;SDS011;35050;51.316;5.994;2024-01-07T07:46:47;18.17;;;13.73;;
49223;SDS011;35050;51.316;5.994;2024-01-07T07:49:13;16.98;;;12.00;;
49223;SDS011;35050;51.316;5.994;2024-01-07T07:51:40;16.50;;;11.50;;
49223;SDS011;35050;51.316;5.994;2024-01-07T07:54:06;17.75;;;12.63;;
49223;SDS011;35050;51.316;5.994;2024-01-07T07:56:32;17.35;;;11.75;;
49223;SDS011;35050;51.316;5.994;2024-01-07T07:58:57;16.00;;;11.48;;
49223;SDS011;35050;51.316;5.994;2024-01-07T08:01:23;15.27;;;11.50;;
49223;SDS011;35050;51.316;5.994;2024-01-07T08:03:49;15.05;;;11.02;;
49223;SDS011;35050;51.316;5.994;2024-01-07T08:06:14;18.73;;;11.88;;
49223;SDS011;35050;51.316;5.994;2024-01-07T08:08:40;17.58;;;11.70;;
49223;SDS011;35050;51.316;5.994;2024-01-07T08:11:06;17.10;;;12.77;;
49223;SDS011;35050;51.316;5.994;2024-01-07T08:13:34;18.05;;;11.90;;
49223;SDS011;35050;51.316;5.994;2024-01-07T08:16:01;17.38;;;12.90;;
49223;SDS011;35050;51.316;5.994;2024-01-07T08:18:27;16.58;;;11.88;;
49223;SDS011;35050;51.316;5.994;2024-01-07T08:20:53;16.00;;;11.48;;
49223;SDS011;35050;51.316;5.994;2024-01-07T08:23:19;15.80;;;11.63;;
49223;SDS011;35050;51.316;5.994;2024-01-07T08:25:44;15.70;;;11.75;;
49223;SDS011;35050;51.316;5.994;2024-01-07T08:28:10;14.70;;;10.85;;
49223;SDS011;35050;51.316;5.994;2024-01-07T08:30:36;18.65;;;12.43;;
49223;SDS011;35050;51.316;5.994;2024-01-07T08:33:01;16.33;;;12.10;;
49223;SDS011;35050;51.316;5.994;2024-01-07T08:35:27;15.68;;;12.20;;
49223;SDS011;35050;51.316;5.994;2024-01-07T08:37:53;15.77;;;12.15;;
49223;SDS011;35050;51.316;5.994;2024-01-07T08:40:18;17.73;;;12.35;;
49223;SDS011;35050;51.316;5.994;2024-01-07T08:42:44;16.83;;;12.07;;
49223;SDS011;35050;51.316;5.994;2024-01-07T08:45:10;16.83;;;11.93;;
49223;SDS011;35050;51.316;5.994;2024-01-07T08:47:36;16.38;;;11.68;;
49223;SDS011;35050;51.316;5.994;2024-01-07T08:50:02;17.55;;;11.98;;
49223;SDS011;35050;51.316;5.994;2024-01-07T08:52:28;17.27;;;12.23;;
49223;SDS011;35050;51.316;5.994;2024-01-07T08:54:54;16.85;;;12.82;;
49223;SDS011;35050;51.316;5.994;2024-01-07T08:57:20;17.17;;;12.10;;
49223;SDS011;35050;51.316;5.994;2024-01-07T08:59:45;18.23;;;12.73;;
49223;SDS011;35050;51.316;5.994;2024-01-07T09:02:11;15.65;;;12.55;;
49223;SDS011;35050;51.316;5.994;2024-01-07T09:04:38;17.10;;;12.43;;
49223;SDS011;35050;51.316;5.994;2024-01-07T09:07:04;16.67;;;11.88;;
49223;SDS011;35050;51.316;5.994;2024-01-07T09:09:29;17.52;;;12.73;;
49223;SDS011;35050;51.316;5.994;2024-01-07T09:11:55;15.68;;;11.57;;
49223;SDS011;35050;51.316;5.994;2024-01-07T09:14:22;16.65;;;12.35;;
49223;SDS011;35050;51.316;5.994;2024-01-07T09:16:50;16.90;;;12.27;;
49223;SDS011;35050;51.316;5.994;2024-01-07T09:19:15;16.27;;;12.02;;
49223;SDS011;35050;51.316;5.994;2024-01-07T09:21:42;16.88;;;11.07;;
49223;SDS011;35050;51.316;5.994;2024-01-07T09:24:08;15.68;;;12.15;;
49223;SDS011;35050;51.316;5.994;2024-01-07T09:26:34;16.52;;;12.10;;
49223;SDS011;35050;51.316;5.994;2024-01-07T09:29:00;17.00;;;12.88;;
49223;SDS011;35050;51.316;5.994;2024-01-07T09:31:26;15.02;;;11.13;;
49223;SDS011;35050;51.316;5.994;2024-01-07T09:33:52;17.35;;;12.00;;
49223;SDS011;35050;51.316;5.994;2024-01-07T09:36:18;19.40;;;12.55;;
49223;SDS011;35050;51.316;5.994;2024-01-07T09:38:43;15.18;;;11.40;;
49223;SDS011;35050;51.316;5.994;2024-01-07T09:41:09;17.70;;;11.88;;
49223;SDS011;35050;51.316;5.994;2024-01-07T09:43:35;15.82;;;11.98;;
49223;SDS011;35050;51.316;5.994;2024-01-07T09:46:02;16.75;;;11.43;;
49223;SDS011;35050;51.316;5.994;2024-01-07T09:48:28;15.73;;;10.88;;
49223;SDS011;35050;51.316;5.994;2024-01-07T09:50:55;15.30;;;11.75;;
49223;SDS011;35050;51.316;5.994;2024-01-07T09:53:25;15.82;;;11.23;;
49223;SDS011;35050;51.316;5.994;2024-01-07T09:58:36;14.70;;;10.90;;
49223;SDS011;35050;51.316;5.994;2024-01-07T10:01:02;17.35;;;11.77;;
49223;SDS011;35050;51.316;5.994;2024-01-07T10:03:29;16.48;;;11.77;;
49223;SDS011;35050;51.316;5.994;2024-01-07T10:05:55;15.73;;;12.13;;
49223;SDS011;35050;51.316;5.994;2024-01-07T10:08:21;14.50;;;11.02;;
49223;SDS011;35050;51.316;5.994;2024-01-07T10:10:48;14.60;;;11.40;;
49223;SDS011;35050;51.316;5.994;2024-01-07T10:13:14;12.80;;;9.95;;
49223;SDS011;35050;51.316;5.994;2024-01-07T10:15:39;13.90;;;10.13;;
49223;SDS011;35050;51.316;5.994;2024-01-07T10:18:06;14.35;;;10.73;;
49223;SDS011;35050;51.316;5.994;2024-01-07T10:20:32;13.48;;;10.45;;
49223;SDS011;35050;51.316;5.994;2024-01-07T10:22:59;13.65;;;10.45;;
49223;SDS011;35050;51.316;5.994;2024-01-07T10:25:25;13.40;;;10.13;;
49223;SDS011;35050;51.316;5.994;2024-01-07T10:27:51;16.50;;;10.48;;
49223;SDS011;35050;51.316;5.994;2024-01-07T10:30:17;14.05;;;10.23;;
49223;SDS011;35050;51.316;5.994;2024-01-07T10:32:42;12.73;;;9.85;;
49223;SDS011;35050;51.316;5.994;2024-01-07T10:35:10;14.82;;;10.63;;
49223;SDS011;35050;51.316;5.994;2024-01-07T10:37:39;11.95;;;9.20;;
49223;SDS011;35050;51.316;5.994;2024-01-07T10:40:05;13.77;;;9.68;;
49223;SDS011;35050;51.316;5.994;2024-01-07T10:42:33;13.55;;;9.30;;
49223;SDS011;35050;51.316;5.994;2024-01-07T10:44:59;11.30;;;8.32;;
49223;SDS011;35050;51.316;5.994;2024-01-07T10:47:31;11.23;;;8.00;;
49223;SDS011;35050;51.316;5.994;2024-01-07T10:49:59;11.55;;;8.75;;
49223;SDS011;35050;51.316;5.994;2024-01-07T10:52:26;10.05;;;8.20;;
49223;SDS011;35050;51.316;5.994;2024-01-07T10:54:53;8.85;;;7.28;;
49223;SDS011;35050;51.316;5.994;2024-01-07T10:57:32;11.40;;;8.25;;
49223;SDS011;35050;51.316;5.994;2024-01-07T11:00:02;11.38;;;8.07;;
49223;SDS011;35050;51.316;5.994;2024-01-07T11:02:32;10.98;;;7.65;;
49223;SDS011;35050;51.316;5.994;2024-01-07T11:05:17;9.32;;;7.32;;
49223;SDS011;35050;51.316;5.994;2024-01-07T11:07:56;9.98;;;7.57;;
49223;SDS011;35050;51.316;5.994;2024-01-07T11:10:34;9.23;;;7.05;;
49223;SDS011;35050;51.316;5.994;2024-01-07T11:13:05;8.73;;;7.13;;
49223;SDS011;35050;51.316;5.994;2024-01-07T11:18:21;8.40;;;6.68;;
49223;SDS011;35050;51.316;5.994;2024-01-07T11:26:04;8.40;;;6.35;;
49223;SDS011;35050;51.316;5.994;2024-01-07T11:31:15;9.43;;;6.35;;
49223;SDS011;35050;51.316;5.994;2024-01-07T11:33:47;8.93;;;6.43;;
49223;SDS011;35050;51.316;5.994;2024-01-07T11:36:14;8.77;;;6.50;;
49223;SDS011;35050;51.316;5.994;2024-01-07T11:38:41;8.65;;;6.72;;
49223;SDS011;35050;51.316;5.994;2024-01-07T11:41:11;8.07;;;6.07;;
49223;SDS011;35050;51.316;5.994;2024-01-07T11:43:38;8.75;;;6.72;;
49223;SDS011;35050;51.316;5.994;2024-01-07T11:46:16;10.10;;;7.03;;
49223;SDS011;35050;51.316;5.994;2024-01-07T11:48:44;9.82;;;6.40;;
49223;SDS011;35050;51.316;5.994;2024-01-07T11:51:10;10.20;;;7.32;;
49223;SDS011;35050;51.316;5.994;2024-01-07T11:53:36;8.27;;;6.53;;
49223;SDS011;35050;51.316;5.994;2024-01-07T11:56:01;9.38;;;6.97;;
49223;SDS011;35050;51.316;5.994;2024-01-07T11:58:27;9.13;;;6.60;;
49223;SDS011;35050;51.316;5.994;2024-01-07T12:00:53;10.90;;;6.88;;
49223;SDS011;35050;51.316;5.994;2024-01-07T12:03:18;8.23;;;6.63;;
49223;SDS011;35050;51.316;5.994;2024-01-07T12:05:44;11.18;;;7.85;;
49223;SDS011;35050;51.316;5.994;2024-01-07T12:08:10;11.25;;;7.63;;
49223;SDS011;35050;51.316;5.994;2024-01-07T12:10:37;9.07;;;7.30;;
49223;SDS011;35050;51.316;5.994;2024-01-07T12:13:02;9.65;;;7.82;;
49223;SDS011;35050;51.316;5.994;2024-01-07T12:15:28;13.25;;;8.38;;
49223;SDS011;35050;51.316;5.994;2024-01-07T12:17:55;13.25;;;7.97;;
49223;SDS011;35050;51.316;5.994;2024-01-07T12:20:22;9.93;;;7.15;;
49223;SDS011;35050;51.316;5.994;2024-01-07T12:22:47;9.60;;;6.82;;
49223;SDS011;35050;51.316;5.994;2024-01-07T12:25:13;12.65;;;7.45;;
49223;SDS011;35050;51.316;5.994;2024-01-07T12:27:45;11.02;;;7.05;;
49223;SDS011;35050;51.316;5.994;2024-01-07T12:30:11;9.77;;;6.85;;
49223;SDS011;35050;51.316;5.994;2024-01-07T12:32:37;9.65;;;6.47;;
49223;SDS011;35050;51.316;5.994;2024-01-07T12:35:03;9.38;;;6.82;;
49223;SDS011;35050;51.316;5.994;2024-01-07T12:37:30;9.38;;;6.10;;
49223;SDS011;35050;51.316;5.994;2024-01-07T12:39:55;7.80;;;5.70;;
49223;SDS011;35050;51.316;5.994;2024-01-07T12:42:21;8.32;;;5.55;;
49223;SDS011;35050;51.316;5.994;2024-01-07T12:44:48;7.03;;;5.30;;
49223;SDS011;35050;51.316;5.994;2024-01-07T12:47:14;7.82;;;5.30;;
49223;SDS011;35050;51.316;5.994;2024-01-07T12:49:40;7.80;;;5.10;;
49223;SDS011;35050;51.316;5.994;2024-01-07T12:52:05;6.65;;;5.15;;
49223;SDS011;35050;51.316;5.994;2024-01-07T12:54:31;7.60;;;5.13;;
49223;SDS011;35050;51.316;5.994;2024-01-07T12:56:57;6.38;;;4.85;;
49223;SDS011;35050;51.316;5.994;2024-01-07T12:59:22;7.28;;;5.00;;
49223;SDS011;35050;51.316;5.994;2024-01-07T13:01:48;6.78;;;4.55;;
49223;SDS011;35050;51.316;5.994;2024-01-07T13:04:16;6.18;;;4.60;;
49223;SDS011;35050;51.316;5.994;2024-01-07T13:06:42;7.35;;;4.30;;
49223;SDS011;35050;51.316;5.994;2024-01-07T13:09:07;5.72;;;4.40;;
49223;SDS011;35050;51.316;5.994;2024-01-07T13:11:34;6.45;;;5.00;;
49223;SDS011;35050;51.316;5.994;2024-01-07T13:14:00;6.28;;;4.72;;
49223;SDS011;35050;51.316;5.994;2024-01-07T13:16:27;5.38;;;4.70;;
49223;SDS011;35050;51.316;5.994;2024-01-07T13:18:53;6.00;;;4.63;;
49223;SDS011;35050;51.316;5.994;2024-01-07T13:21:19;5.35;;;4.40;;
49223;SDS011;35050;51.316;5.994;2024-01-07T13:23:46;8.07;;;4.45;;
49223;SDS011;35050;51.316;5.994;2024-01-07T13:26:15;6.45;;;5.00;;
49223;SDS011;35050;51.316;5.994;2024-01-07T13:28:41;7.63;;;5.38;;
49223;SDS011;35050;51.316;5.994;2024-01-07T13:31:08;6.75;;;4.75;;
49223;SDS011;35050;51.316;5.994;2024-01-07T13:33:34;6.90;;;5.22;;
49223;SDS011;35050;51.316;5.994;2024-01-07T13:36:00;5.82;;;4.43;;
49223;SDS011;35050;51.316;5.994;2024-01-07T13:38:27;5.55;;;4.57;;
49223;SDS011;35050;51.316;5.994;2024-01-07T13:40:53;6.05;;;4.63;;
49223;SDS011;35050;51.316;5.994;2024-01-07T13:43:19;7.15;;;4.75;;
49223;SDS011;35050;51.316;5.994;2024-01-07T13:45:45;6.93;;;5.00;;
49223;SDS011;35050;51.316;5.994;2024-01-07T13:48:11;8.57;;;5.70;;
49223;SDS011;35050;51.316;5.994;2024-01-07T13:50:36;7.78;;;5.00;;
49223;SDS011;35050;51.316;5.994;2024-01-07T13:53:02;6.53;;;4.97;;
49223;SDS011;35050;51.316;5.994;2024-01-07T13:55:27;6.57;;;4.80;;
49223;SDS011;35050;51.316;5.994;2024-01-07T13:57:53;5.63;;;4.15;;
49223;SDS011;35050;51.316;5.994;2024-01-07T14:00:19;5.97;;;4.43;;
49223;SDS011;35050;51.316;5.994;2024-01-07T14:02:46;6.68;;;4.38;;
49223;SDS011;35050;51.316;5.994;2024-01-07T14:05:13;5.80;;;4.03;;
49223;SDS011;35050;51.316;5.994;2024-01-07T14:07:38;5.90;;;3.97;;
49223;SDS011;35050;51.316;5.994;2024-01-07T14:10:05;5.40;;;3.92;;
49223;SDS011;35050;51.316;5.994;2024-01-07T14:12:32;6.82;;;4.05;;
49223;SDS011;35050;51.316;5.994;2024-01-07T14:14:58;4.63;;;3.65;;
49223;SDS011;35050;51.316;5.994;2024-01-07T14:17:24;5.63;;;3.65;;
49223;SDS011;35050;51.316;5.994;2024-01-07T14:19:50;4.55;;;4.05;;
49223;SDS011;35050;51.316;5.994;2024-01-07T14:22:18;6.03;;;3.90;;
49223;SDS011;35050;51.316;5.994;2024-01-07T14:24:47;5.07;;;3.63;;
49223;SDS011;35050;51.316;5.994;2024-01-07T14:27:16;4.38;;;3.60;;
49223;SDS011;35050;51.316;5.994;2024-01-07T14:29:42;5.22;;;3.50;;
49223;SDS011;35050;51.316;5.994;2024-01-07T14:32:09;5.47;;;3.60;;
49223;SDS011;35050;51.316;5.994;2024-01-07T14:34:38;4.78;;;3.42;;
49223;SDS011;35050;51.316;5.994;2024-01-07T14:37:06;4.90;;;3.70;;